createdAt,value
2023-03-18T00:01:47.284Z,8
2023-03-18T00:06:48.965Z,11
2023-03-18T00:11:50.704Z,9
2023-03-18T00:16:52.358Z,9
2023-03-18T00:21:53.952Z,11
2023-03-18T00:26:55.565Z,17
2023-03-18T00:31:57.212Z,14
2023-03-18T00:36:58.931Z,14
2023-03-18T00:42:00.561Z,19
2023-03-18T00:47:02.312Z,18
2023-03-18T00:52:04.012Z,19
2023-03-18T00:57:05.686Z,20
2023-03-18T01:02:07.481Z,21
2023-03-18T01:07:09.152Z,19
2023-03-18T01:12:10.950Z,20
2023-03-18T01:17:12.556Z,18
2023-03-18T01:22:14.162Z,19
2023-03-18T01:27:15.816Z,20
2023-03-18T01:32:17.414Z,17
2023-03-18T01:37:19.006Z,12
2023-03-18T01:42:20.589Z,11
2023-03-18T01:47:22.240Z,14
2023-03-18T01:52:23.913Z,11
2023-03-18T01:57:25.623Z,11
2023-03-18T02:02:27.383Z,13
2023-03-18T02:07:28.992Z,9
2023-03-18T02:12:30.625Z,12
2023-03-18T02:17:32.255Z,10
2023-03-18T02:22:33.906Z,12
2023-03-18T02:27:35.534Z,12
2023-03-18T02:32:37.266Z,10
2023-03-18T02:37:38.947Z,8
2023-03-18T02:42:40.608Z,10
2023-03-18T02:47:42.343Z,8
2023-03-18T02:52:43.990Z,8
2023-03-18T02:57:45.622Z,8
2023-03-18T03:02:47.295Z,10
2023-03-18T03:07:49.184Z,7
2023-03-18T03:12:50.786Z,6
2023-03-18T03:17:52.548Z,4
2023-03-18T03:22:54.416Z,6
2023-03-18T03:27:56.051Z,4
2023-03-18T03:32:57.683Z,3
2023-03-18T03:37:59.299Z,3
2023-03-18T03:43:00.978Z,2
2023-03-18T03:48:02.602Z,1
2023-03-18T03:53:04.179Z,1
2023-03-18T03:58:05.918Z,3
2023-03-18T04:03:07.572Z,1
2023-03-18T04:08:09.169Z,1
2023-03-18T04:13:10.902Z,2
2023-03-18T04:18:12.988Z,1
2023-03-18T04:23:14.602Z,2
2023-03-18T04:28:16.195Z,4
2023-03-18T04:33:17.824Z,3
2023-03-18T04:38:19.480Z,2
2023-03-18T04:43:21.136Z,2
2023-03-18T04:48:22.779Z,2
2023-03-18T04:53:24.384Z,2
2023-03-18T04:58:26.005Z,1
2023-03-18T05:03:27.652Z,1
2023-03-18T05:08:29.349Z,3
2023-03-18T05:13:31.109Z,1
2023-03-18T05:18:32.775Z,1
2023-03-18T05:23:34.513Z,2
2023-03-18T05:28:36.118Z,1
2023-03-18T05:33:37.791Z,1
2023-03-18T05:38:39.400Z,1
2023-03-18T05:43:41.009Z,1
2023-03-18T05:48:42.622Z,1
2023-03-18T05:53:44.332Z,1
2023-03-18T05:58:46.004Z,1
2023-03-18T06:03:47.709Z,1
2023-03-18T06:08:49.387Z,1
2023-03-18T06:13:51.038Z,1
2023-03-18T06:18:52.892Z,1
2023-03-18T06:23:54.570Z,0
2023-03-18T06:28:56.179Z,1
2023-03-18T06:34:00.187Z,1
2023-03-18T06:39:02.856Z,1
2023-03-18T06:44:04.625Z,1
2023-03-18T06:49:06.298Z,2
2023-03-18T06:54:08.135Z,1
2023-03-18T06:59:09.797Z,1
2023-03-18T07:04:11.443Z,1
2023-03-18T07:09:13.166Z,2
2023-03-18T07:14:14.774Z,1
2023-03-18T07:19:16.687Z,1
2023-03-18T07:24:18.290Z,1
2023-03-18T07:29:19.912Z,2
2023-03-18T07:34:21.543Z,0
2023-03-18T07:39:23.186Z,1
2023-03-18T07:44:24.846Z,1
2023-03-18T07:49:26.520Z,2
2023-03-18T07:54:28.288Z,1
2023-03-18T07:59:29.969Z,1
2023-03-18T08:04:31.671Z,1
2023-03-18T08:09:33.447Z,2
2023-03-18T08:14:35.115Z,2
2023-03-18T08:19:36.771Z,2
2023-03-18T08:24:38.455Z,1
2023-03-18T08:29:40.107Z,1
2023-03-18T08:34:41.774Z,1
2023-03-18T08:39:43.376Z,1
2023-03-18T08:44:45.052Z,1
2023-03-18T08:49:46.959Z,1
2023-03-18T08:54:48.579Z,0
2023-03-18T08:59:50.217Z,1
2023-03-18T09:04:51.844Z,2
2023-03-18T09:09:53.467Z,1
2023-03-18T09:14:55.062Z,1
2023-03-18T09:19:56.729Z,1
2023-03-18T09:24:58.400Z,0
2023-03-18T09:30:00.193Z,1
2023-03-18T09:35:02.043Z,1
2023-03-18T09:40:03.864Z,0
2023-03-18T09:45:05.494Z,1
2023-03-18T09:50:07.283Z,1
2023-03-18T09:55:09.038Z,1
2023-03-18T10:00:10.719Z,1
2023-03-18T10:05:12.393Z,1
2023-03-18T10:10:14.019Z,0
2023-03-18T10:15:15.637Z,1
2023-03-18T10:20:17.405Z,1
2023-03-18T10:25:21.201Z,1
2023-03-18T10:30:22.994Z,1
2023-03-18T10:35:24.629Z,1
2023-03-18T10:40:26.240Z,0
2023-03-18T10:45:27.866Z,0
2023-03-18T10:50:29.636Z,0
2023-03-18T10:55:31.320Z,1
2023-03-18T11:00:33.396Z,1
2023-03-18T11:05:35.264Z,1
2023-03-18T11:10:37.043Z,2
2023-03-18T11:15:38.860Z,1
2023-03-18T11:20:40.471Z,1
2023-03-18T11:25:42.112Z,2
2023-03-18T11:30:44.047Z,1
2023-03-18T11:35:45.966Z,1
2023-03-18T11:40:47.602Z,9
2023-03-18T11:45:49.188Z,8
2023-03-18T11:50:50.803Z,6
2023-03-18T11:55:52.462Z,6
2023-03-18T12:00:54.079Z,7
2023-03-18T12:05:55.804Z,6
2023-03-18T12:10:57.438Z,6
2023-03-18T12:15:59.058Z,7
2023-03-18T12:21:00.685Z,9
2023-03-18T12:26:02.328Z,7
2023-03-18T12:31:03.965Z,8
2023-03-18T12:36:05.700Z,11
2023-03-18T12:41:07.261Z,11
2023-03-18T12:46:08.927Z,44
2023-03-18T12:51:10.590Z,27
2023-03-18T12:56:12.286Z,19
2023-03-18T13:01:14.041Z,18
2023-03-18T13:06:15.695Z,47
2023-03-18T13:11:17.304Z,53
2023-03-18T13:16:19.041Z,17
2023-03-18T13:21:20.669Z,8
2023-03-18T13:26:22.331Z,6
2023-03-18T13:31:24.019Z,7
2023-03-18T13:36:25.685Z,7
2023-03-18T13:41:27.299Z,7
2023-03-18T13:46:28.995Z,5
2023-03-18T13:51:30.662Z,8
2023-03-18T13:56:32.285Z,9
2023-03-18T14:01:34.034Z,8
2023-03-18T14:06:35.829Z,7
2023-03-18T14:11:37.532Z,6
2023-03-18T14:16:39.297Z,6
2023-03-18T14:21:40.944Z,7
2023-03-18T14:26:42.580Z,4
2023-03-18T14:31:44.271Z,6
2023-03-18T14:36:45.956Z,6
2023-03-18T14:41:47.607Z,7
2023-03-18T14:46:51.321Z,7
2023-03-18T14:51:53.263Z,8
2023-03-18T14:56:54.939Z,8
2023-03-18T15:01:56.753Z,9
2023-03-18T15:06:58.353Z,9
2023-03-18T15:12:00.015Z,8
2023-03-18T15:17:01.711Z,7
2023-03-18T15:22:03.493Z,11
2023-03-18T15:27:05.335Z,9
2023-03-18T15:32:10.093Z,9
2023-03-18T15:37:12.316Z,9
2023-03-18T15:42:13.987Z,11
2023-03-18T15:47:15.673Z,11
2023-03-18T15:52:17.328Z,11
2023-03-18T15:57:18.922Z,8
2023-03-18T16:02:20.561Z,8
2023-03-18T16:07:22.267Z,7
2023-03-18T16:12:24.107Z,7
2023-03-18T16:17:25.718Z,7
2023-03-18T16:22:27.341Z,11
2023-03-18T16:27:29.000Z,10
2023-03-18T16:32:30.677Z,5
2023-03-18T16:37:32.329Z,5
2023-03-18T16:42:33.968Z,11
2023-03-18T16:47:35.619Z,6
2023-03-18T16:52:37.228Z,6
2023-03-18T16:57:38.873Z,15
2023-03-18T17:02:40.605Z,16
2023-03-18T17:07:42.360Z,12
2023-03-18T17:12:44.060Z,8
2023-03-18T17:17:45.841Z,7
2023-03-18T17:22:47.562Z,8
2023-03-18T17:27:49.161Z,9
2023-03-18T17:32:50.863Z,11
2023-03-18T17:37:52.574Z,11
2023-03-18T17:42:54.185Z,11
2023-03-18T17:47:55.776Z,10
2023-03-18T17:52:57.385Z,10
2023-03-18T17:57:59.020Z,11
2023-03-18T18:03:00.863Z,14
2023-03-18T18:08:02.593Z,11
2023-03-18T18:13:04.218Z,12
2023-03-18T18:18:05.819Z,12
2023-03-18T18:23:07.504Z,12
2023-03-18T18:28:09.187Z,20
2023-03-18T18:33:10.825Z,20
2023-03-18T18:38:12.457Z,0
2023-03-18T18:43:14.158Z,16
2023-03-18T18:48:15.797Z,14
2023-03-18T18:53:17.411Z,15
2023-03-18T18:58:19.024Z,14
2023-03-18T19:03:20.681Z,12
2023-03-18T19:08:22.358Z,15
2023-03-18T19:13:24.064Z,12
2023-03-18T19:18:25.689Z,11
2023-03-18T19:23:27.349Z,16
2023-03-18T19:28:29.059Z,12
2023-03-18T19:33:30.714Z,14
2023-03-18T19:38:32.362Z,10
2023-03-18T19:43:34.045Z,12
2023-03-18T19:48:35.691Z,10
2023-03-18T19:53:37.303Z,12
2023-03-18T19:58:39.106Z,11
2023-03-18T20:03:40.771Z,11
2023-03-18T20:08:42.369Z,10
2023-03-18T20:13:43.997Z,12
2023-03-18T20:18:45.968Z,11
2023-03-18T20:23:47.690Z,12
2023-03-18T20:28:49.292Z,11
2023-03-18T20:33:50.914Z,13
2023-03-18T20:38:52.549Z,15
2023-03-18T20:43:54.176Z,11
2023-03-18T20:48:55.837Z,10
2023-03-18T20:53:57.474Z,10
2023-03-18T20:58:59.236Z,10
2023-03-18T21:04:00.929Z,7
2023-03-18T21:09:02.829Z,9
2023-03-18T21:14:04.415Z,10
2023-03-18T21:19:06.066Z,7
2023-03-18T21:24:07.816Z,7
2023-03-18T21:29:09.468Z,7
2023-03-18T21:34:11.138Z,9
2023-03-18T21:39:12.899Z,9
2023-03-18T21:44:14.542Z,11
2023-03-18T21:49:16.224Z,10
2023-03-18T21:54:17.969Z,7
2023-03-18T21:59:19.630Z,6
2023-03-18T22:04:21.300Z,5
2023-03-18T22:09:23.099Z,7
2023-03-18T22:14:24.710Z,7
2023-03-18T22:19:26.479Z,9
2023-03-18T22:24:28.207Z,7
2023-03-18T22:29:29.867Z,11
2023-03-18T22:34:31.465Z,7
2023-03-18T22:39:33.069Z,11
2023-03-18T22:44:34.708Z,9
2023-03-18T22:49:36.372Z,7
2023-03-18T22:54:38.016Z,7
2023-03-18T22:59:39.619Z,9
2023-03-18T23:04:41.264Z,8
2023-03-18T23:09:56.260Z,9
2023-03-18T23:14:58.638Z,12
2023-03-18T23:20:00.251Z,13
2023-03-18T23:25:01.890Z,13
2023-03-18T23:30:03.492Z,13
2023-03-18T23:35:05.222Z,13
2023-03-18T23:40:06.923Z,13
2023-03-18T23:45:08.595Z,13
2023-03-18T23:50:10.274Z,13
2023-03-18T23:55:30.886Z,13
